KPBH

Price County Airport

Phillips, Wisconsin, USA
METAR KPBH 201655Z AUTO 34009G17KT 310V010 10SM SCT037 BKN042 OVC049 M01/M08 A3003 RMK AO2 T10101079
Observed Flight Rules
Oct-20 @ 16:55 UTC (18 minutes ago) Visual Flight Rules
Wind Visibility Clouds
340° at 9 knots
 Gusting to 17 knots
10 miles
  • Scattered at 3,700' AGL
  • Broken at 4,200' AGL
  • Overcast at 4,900' AGL
Temperatures Readings
Current -1°C / 30°F
Dewpoint -8°C / 18°F
Humidity 59%
Altimeter 30.03" Hg
Pressure 1017 hPa
Elevation 449
METAR KPBH 201655Z AUTO 34009G17KT 310V010 10SM SCT037 BKN042 OVC049 M01/M08 A3003 RMK AO2 T10101079
Observed Flight Rules
Oct-20 @ 16:55 UTC
(18 minutes ago)
VFR
Wind Visibility
340° at 9 knots
 Gusting to 17 knots
10 miles
Clouds
  • Scattered at 3,700' AGL
  • Broken at 4,200' AGL
  • Overcast at 4,900' AGL
Temperature Dewpoint
-1°C / 30°F -8°C / 18°F
Humidity Altimeter Pressure
59% 30.03" Hg 1017 hPa